Time;durP1;ratioP1;P1;durP2;ratioP2;P2;SDS_P1;SDS_P2;PMS_P1;PMS_P2;Temp;Humidity;BMP_temperature;BMP_pressure;BME280_temperature;BME280_humidity;BME280_pressure;Samples;Min_cycle;Max_cycle;Signal;HPM_P1;HPM_P2
2022/09/18 00:01:00;;;;;;;7.13;1.80;;;;;;;9.97;100.00;100029.75;5011325;28;20240;-69
2022/09/18 00:03:29;;;;;;;6.23;1.77;;;;;;;9.87;100.00;100028.56;5012385;28;20179;-68
2022/09/18 00:05:54;;;;;;;9.50;1.77;;;;;;;9.82;100.00;100023.69;5011343;28;20282;-68
2022/09/18 00:08:19;;;;;;;6.60;1.93;;;;;;;9.86;100.00;100021.78;5013925;28;20621;-69
2022/09/18 00:10:47;;;;;;;2.97;1.47;;;;;;;9.85;100.00;100015.81;5007996;28;20236;-68
2022/09/18 00:13:15;;;;;;;4.97;1.60;;;;;;;9.90;100.00;100015.56;5012214;28;20189;-68
2022/09/18 00:15:43;;;;;;;3.83;1.60;;;;;;;9.96;100.00;100011.81;5007424;28;20273;-69
2022/09/18 00:18:09;;;;;;;4.67;1.80;;;;;;;9.99;100.00;100009.09;5013274;28;21569;-70
2022/09/18 00:20:37;;;;;;;6.17;1.80;;;;;;;10.09;100.00;100005.13;5003610;28;20422;-69
2022/09/18 00:23:03;;;;;;;3.97;1.50;;;;;;;10.07;100.00;100004.41;5011087;28;20191;-69
2022/09/18 00:25:30;;;;;;;4.77;1.53;;;;;;;10.12;100.00;99999.00;5011421;28;20268;-69
2022/09/18 00:27:58;;;;;;;3.53;1.67;;;;;;;10.10;100.00;100000.84;5014468;28;20183;-68
2022/09/18 00:30:28;;;;;;;5.57;1.47;;;;;;;10.15;100.00;100001.41;4994662;28;20222;-68
2022/09/18 00:32:56;;;;;;;5.13;1.67;;;;;;;10.12;100.00;99999.84;5008990;28;20495;-68
2022/09/18 00:35:21;;;;;;;2.30;1.33;;;;;;;10.15;100.00;100002.22;5010001;28;20266;-68
2022/09/18 00:37:47;;;;;;;2.90;1.40;;;;;;;10.23;100.00;100000.97;5014894;28;20205;-68
2022/09/18 00:40:14;;;;;;;3.77;1.40;;;;;;;10.18;100.00;99999.50;5003864;28;20186;-68
2022/09/18 00:42:39;;;;;;;4.03;1.23;;;;;;;10.17;100.00;100002.97;5014298;28;20226;-69
2022/09/18 00:45:05;;;;;;;3.07;1.60;;;;;;;10.18;100.00;100003.78;5012041;28;20250;-68
2022/09/18 00:47:51;;;;;;;6.27;1.60;;;;;;;10.17;100.00;99999.56;5019826;28;20632;-68
2022/09/18 00:50:23;;;;;;;5.40;1.33;;;;;;;10.21;100.00;100008.78;5012541;28;20198;-69
2022/09/18 00:53:01;;;;;;;4.20;1.17;;;;;;;10.23;100.00;100001.78;5010935;28;20195;-68
2022/09/18 00:55:41;;;;;;;2.77;1.23;;;;;;;10.26;100.00;99998.25;5011862;28;20197;-69
2022/09/18 00:58:12;;;;;;;5.20;1.33;;;;;;;10.30;100.00;100004.88;5018228;28;20198;-69
2022/09/18 01:00:38;;;;;;;2.83;1.43;;;;;;;10.31;100.00;100009.94;5011901;28;20312;-69
2022/09/18 01:03:04;;;;;;;4.40;1.93;;;;;;;10.42;100.00;100004.25;5014984;28;20377;-70
2022/09/18 01:06:00;;;;;;;3.43;1.23;;;;;;;10.34;100.00;100011.50;5011167;28;20638;-70
2022/09/18 01:08:46;;;;;;;4.17;1.43;;;;;;;10.31;100.00;99998.84;5014275;28;20174;-70
2022/09/18 01:11:20;;;;;;;1.77;1.13;;;;;;;10.37;100.00;100010.53;5014121;28;20272;-69
2022/09/18 01:14:03;;;;;;;3.30;1.50;;;;;;;10.38;100.00;100007.06;5018709;28;20192;-69
2022/09/18 01:16:53;;;;;;;4.53;1.60;;;;;;;10.33;100.00;100010.69;5011948;28;20201;-69
2022/09/18 01:19:47;;;;;;;2.40;1.17;;;;;;;10.41;100.00;100015.44;5013292;28;20300;-70
2022/09/18 01:22:40;;;;;;;4.30;1.33;;;;;;;10.31;100.00;100012.50;5002138;28;20225;-69
2022/09/18 01:25:29;;;;;;;3.27;1.20;;;;;;;10.38;100.00;100007.06;5012861;28;20180;-70
2022/09/18 01:28:04;;;;;;;2.53;0.80;;;;;;;10.39;100.00;100013.84;5015292;28;20248;-70
2022/09/18 01:30:31;;;;;;;4.27;1.10;;;;;;;10.41;100.00;100000.00;5005557;28;20228;-71
2022/09/18 01:33:06;;;;;;;3.50;1.40;;;;;;;10.42;100.00;100001.66;5010408;28;20649;-71
2022/09/18 01:35:44;;;;;;;3.03;1.10;;;;;;;10.46;100.00;100002.31;5013195;28;20232;-71
2022/09/18 01:38:30;;;;;;;3.57;1.40;;;;;;;10.42;100.00;99993.09;5013157;28;20213;-71
2022/09/18 01:41:02;;;;;;;8.43;1.97;;;;;;;10.50;100.00;100003.81;5007452;28;20295;-70
2022/09/18 01:43:29;;;;;;;6.93;1.47;;;;;;;10.48;100.00;99998.75;5025046;28;20249;-70
2022/09/18 01:46:02;;;;;;;4.10;1.20;;;;;;;10.39;100.00;99998.44;5010600;28;20258;-70
2022/09/18 01:48:35;;;;;;;3.97;1.27;;;;;;;10.48;100.00;99997.91;5020869;28;20188;-70
2022/09/18 01:51:11;;;;;;;3.37;1.20;;;;;;;10.51;100.00;99999.50;5003897;28;20255;-70
2022/09/18 01:53:43;;;;;;;3.27;1.33;;;;;;;10.40;100.00;99998.34;5013856;28;20182;-70
2022/09/18 01:56:15;;;;;;;8.03;1.50;;;;;;;10.41;100.00;99989.72;5012755;28;20188;-70
2022/09/18 01:58:42;;;;;;;4.60;1.47;;;;;;;10.40;100.00;99997.53;5022429;28;20236;-70
2022/09/18 02:01:13;;;;;;;4.60;1.13;;;;;;;10.49;100.00;99995.28;5008370;28;20234;-70
2022/09/18 02:03:47;;;;;;;1.63;0.87;;;;;;;10.46;100.00;99992.03;5012440;28;20174;-70
2022/09/18 02:06:25;;;;;;;4.00;1.07;;;;;;;10.52;100.00;99989.13;5009814;28;20210;-70
2022/09/18 02:08:53;;;;;;;2.00;1.00;;;;;;;10.53;100.00;99989.94;5021361;28;20214;-71
2022/09/18 02:11:20;;;;;;;3.77;1.37;;;;;;;10.54;100.00;99989.03;5005283;28;20221;-70
2022/09/18 02:14:02;;;;;;;3.20;1.30;;;;;;;10.59;100.00;99995.59;5011128;28;20179;-71
2022/09/18 02:16:38;;;;;;;4.77;1.47;;;;;;;10.50;100.00;99988.38;5010839;28;20210;-70
2022/09/18 02:19:21;;;;;;;2.60;0.90;;;;;;;10.39;100.00;99986.38;5025686;28;20193;-70
2022/09/18 02:21:51;;;;;;;6.87;1.47;;;;;;;10.42;100.00;99983.66;5021423;28;20236;-69
2022/09/18 02:24:21;;;;;;;2.33;1.20;;;;;;;10.50;100.00;99985.81;5018151;28;20211;-69
2022/09/18 02:26:50;;;;;;;3.27;1.20;;;;;;;10.49;100.00;99979.00;5009303;28;20555;-70
2022/09/18 02:29:20;;;;;;;3.37;0.93;;;;;;;10.46;100.00;99974.03;5010008;28;20213;-69
2022/09/18 02:31:45;;;;;;;3.07;0.87;;;;;;;10.52;100.00;99975.41;5008370;28;20238;-69
2022/09/18 02:34:11;;;;;;;2.30;0.90;;;;;;;10.57;100.00;99976.00;5018817;28;20182;-69
2022/09/18 02:37:11;;;;;;;3.77;1.10;;;;;;;10.56;100.00;99976.91;5014673;28;20197;-69
2022/09/18 02:40:07;;;;;;;5.50;1.20;;;;;;;10.56;100.00;99982.88;5012175;28;20212;-69
2022/09/18 02:43:05;;;;;;;3.93;1.07;;;;;;;10.60;100.00;99992.06;5011134;28;20658;-69
2022/09/18 02:45:50;;;;;;;2.97;1.10;;;;;;;10.66;100.00;99990.91;5013412;28;20183;-70
2022/09/18 02:48:43;;;;;;;3.03;0.90;;;;;;;10.59;100.00;99981.88;5002407;28;20563;-70
2022/09/18 02:51:26;;;;;;;1.60;0.90;;;;;;;10.51;100.00;99995.19;5004945;28;20322;-70
2022/09/18 02:53:52;;;;;;;1.27;0.83;;;;;;;10.55;100.00;99990.69;5013332;28;20179;-70
2022/09/18 02:56:44;;;;;;;2.03;0.90;;;;;;;10.55;100.00;99990.69;5020640;28;20240;-70
2022/09/18 02:59:32;;;;;;;2.87;1.10;;;;;;;10.57;100.00;99988.88;5014133;28;20198;-69
2022/09/18 03:01:58;;;;;;;2.50;1.00;;;;;;;10.60;100.00;99976.63;4995143;28;20312;-69
2022/09/18 03:04:29;;;;;;;1.57;0.80;;;;;;;10.60;100.00;99986.13;5020481;28;20196;-69
2022/09/18 03:06:55;;;;;;;3.00;0.80;;;;;;;10.69;100.00;99969.31;5010683;28;20177;-69
2022/09/18 03:09:21;;;;;;;1.50;0.90;;;;;;;10.66;100.00;99976.28;5020025;28;20183;-68
2022/09/18 03:11:48;;;;;;;1.53;0.87;;;;;;;10.60;100.00;99968.09;5023836;28;20228;-69
2022/09/18 03:14:13;;;;;;;3.03;0.80;;;;;;;10.58;100.00;99959.63;5019659;28;20196;-68
2022/09/18 03:16:39;;;;;;;1.43;0.73;;;;;;;10.54;100.00;99951.25;5016514;28;20225;-68
2022/09/18 03:19:04;;;;;;;2.20;0.90;;;;;;;10.54;100.00;99958.16;5035100;28;20194;-69
2022/09/18 03:21:31;;;;;;;0.90;0.90;;;;;;;10.62;100.00;99958.56;5017429;28;20312;-70
2022/09/18 03:23:56;;;;;;;1.37;0.90;;;;;;;10.57;100.00;99956.25;5026358;28;20182;-70
2022/09/18 03:26:22;;;;;;;2.80;1.00;;;;;;;10.59;100.00;99961.31;5015501;28;20603;-71
2022/09/18 03:28:50;;;;;;;1.63;1.03;;;;;;;10.60;100.00;99960.41;5020565;28;20256;-70
2022/09/18 03:31:15;;;;;;;1.60;0.90;;;;;;;10.51;100.00;99956.59;4984134;28;20235;-69
2022/09/18 03:33:41;;;;;;;1.50;0.80;;;;;;;10.49;100.00;99963.56;5009874;28;20178;-73
2022/09/18 03:36:07;;;;;;;1.53;0.70;;;;;;;10.54;100.00;99960.75;5025400;28;20617;-69
2022/09/18 03:38:33;;;;;;;2.07;0.60;;;;;;;10.49;100.00;99966.13;5024633;28;20198;-69
2022/09/18 03:41:01;;;;;;;2.57;0.90;;;;;;;10.55;100.00;99962.41;5007240;28;20230;-69
2022/09/18 03:43:26;;;;;;;2.90;1.00;;;;;;;10.49;100.00;99963.56;5023773;28;20321;-70
2022/09/18 03:45:52;;;;;;;1.53;0.80;;;;;;;10.48;100.00;99961.91;5031415;28;20269;-70
2022/09/18 03:48:20;;;;;;;1.90;1.17;;;;;;;10.52;100.00;99965.13;5023202;28;20602;-70
2022/09/18 03:50:48;;;;;;;3.97;1.13;;;;;;;10.51;100.00;99960.94;5013798;28;20257;-71
2022/09/18 03:53:16;;;;;;;2.10;1.00;;;;;;;10.51;100.00;99963.50;5014727;28;20186;-69
2022/09/18 03:55:42;;;;;;;2.17;0.83;;;;;;;10.59;100.00;99956.16;5025590;28;20186;-69
2022/09/18 03:58:07;;;;;;;1.73;0.73;;;;;;;10.51;100.00;99959.16;5019541;28;20210;-70
2022/09/18 04:00:33;;;;;;;1.57;0.80;;;;;;;10.50;100.00;99970.38;5010007;28;20234;-69
2022/09/18 04:03:01;;;;;;;0.77;0.70;;;;;;;10.48;100.00;99973.03;5025281;28;20186;-69
2022/09/18 04:05:26;;;;;;;1.67;0.90;;;;;;;10.47;100.00;99973.13;5020334;28;20205;-69
2022/09/18 04:07:51;;;;;;;2.47;0.87;;;;;;;10.62;100.00;99967.09;5015154;28;20634;-70
2022/09/18 04:10:17;;;;;;;0.87;0.83;;;;;;;10.63;100.00;99968.75;5013724;28;20199;-69
2022/09/18 04:12:48;;;;;;;1.80;1.00;;;;;;;10.57;100.00;99958.81;5012847;28;20759;-71
2022/09/18 04:15:14;;;;;;;0.87;0.80;;;;;;;10.58;100.00;99954.50;5011297;28;20191;-69
2022/09/18 04:17:42;;;;;;;2.70;1.00;;;;;;;10.62;100.00;99968.84;5013293;28;20224;-69
2022/09/18 04:20:08;;;;;;;1.37;0.70;;;;;;;10.62;100.00;99968.84;5003946;28;20640;-69
2022/09/18 04:22:34;;;;;;;1.20;0.83;;;;;;;10.60;100.00;99968.94;5013385;28;20193;-70
2022/09/18 04:24:59;;;;;;;0.90;0.57;;;;;;;10.60;100.00;99971.50;5012629;28;20187;-69
2022/09/18 04:27:27;;;;;;;2.13;0.83;;;;;;;10.53;100.00;99965.06;5014727;28;20192;-69
2022/09/18 04:29:52;;;;;;;1.83;0.90;;;;;;;10.60;100.00;99968.09;5008261;28;20587;-71
2022/09/18 04:32:20;;;;;;;1.80;0.87;;;;;;;10.57;100.00;99983.72;5008149;28;20283;-70
2022/09/18 04:34:46;;;;;;;1.80;0.90;;;;;;;10.56;100.00;99975.16;5012014;28;20252;-69
2022/09/18 04:37:11;;;;;;;2.97;1.00;;;;;;;10.59;100.00;99969.88;5024846;28;20280;-69
2022/09/18 04:39:36;;;;;;;3.57;1.20;;;;;;;10.56;100.00;99971.78;5011911;28;20686;-68
2022/09/18 04:42:04;;;;;;;1.37;0.97;;;;;;;10.58;100.00;99969.94;5017837;28;20276;-68
2022/09/18 04:44:30;;;;;;;0.93;0.63;;;;;;;10.61;100.00;99978.31;5018272;28;20217;-69
2022/09/18 04:46:55;;;;;;;1.90;0.83;;;;;;;10.64;100.00;99978.16;5017214;28;20216;-69
2022/09/18 04:49:21;;;;;;;1.17;0.70;;;;;;;10.66;100.00;99985.78;5019775;28;20257;-70
2022/09/18 04:51:51;;;;;;;1.13;0.80;;;;;;;10.55;100.00;99977.84;5015500;28;20236;-68
2022/09/18 04:54:16;;;;;;;2.37;0.80;;;;;;;10.58;100.00;99985.34;5017330;28;20627;-68
2022/09/18 04:56:41;;;;;;;1.57;0.90;;;;;;;10.57;100.00;99974.25;5019430;28;20351;-68
2022/09/18 04:59:10;;;;;;;1.17;0.50;;;;;;;10.59;100.00;99980.16;5019458;28;20214;-68
2022/09/18 05:01:35;;;;;;;2.63;0.70;;;;;;;10.53;100.00;99970.22;5019398;28;20355;-69
2022/09/18 05:04:01;;;;;;;2.03;1.00;;;;;;;10.56;100.00;99980.31;5037064;28;20651;-68
2022/09/18 05:06:26;;;;;;;0.90;0.73;;;;;;;10.54;100.00;99979.56;5025853;28;20680;-69
2022/09/18 05:08:59;;;;;;;3.60;1.30;;;;;;;10.61;100.00;99985.19;5022249;28;20197;-69
2022/09/18 05:11:25;;;;;;;1.53;0.93;;;;;;;10.59;100.00;99982.72;5004584;28;20233;-69
2022/09/18 05:13:55;;;;;;;0.60;0.60;;;;;;;10.54;100.00;99981.31;5011324;28;20171;-70
2022/09/18 05:16:22;;;;;;;1.70;0.90;;;;;;;10.58;100.00;99985.34;5008529;28;20270;-70
2022/09/18 05:18:49;;;;;;;3.60;0.90;;;;;;;10.59;100.00;99995.59;5019681;28;20623;-70
2022/09/18 05:21:14;;;;;;;1.80;0.70;;;;;;;10.58;100.00;99985.34;5005633;28;20224;-70
2022/09/18 05:23:39;;;;;;;2.37;0.80;;;;;;;10.60;100.00;99991.25;5015808;28;20269;-70
2022/09/18 05:26:05;;;;;;;1.33;0.63;;;;;;;10.62;100.00;99982.53;5022297;28;20646;-69
2022/09/18 05:28:31;;;;;;;4.80;0.87;;;;;;;10.70;100.00;99991.56;5016112;28;20288;-70
2022/09/18 05:30:58;;;;;;;1.73;0.63;;;;;;;10.64;100.00;99982.44;5018306;28;20241;-69
2022/09/18 05:33:24;;;;;;;1.87;0.67;;;;;;;10.64;100.00;99992.72;5023064;28;20191;-69
2022/09/18 05:35:56;;;;;;;1.53;0.70;;;;;;;10.69;100.00;99989.91;5024471;28;20182;-70
2022/09/18 05:38:25;;;;;;;2.87;0.93;;;;;;;10.61;100.00;99988.59;5018207;28;20741;-68
2022/09/18 05:40:53;;;;;;;2.93;0.70;;;;;;;10.64;100.00;99992.72;5006226;28;20241;-69
2022/09/18 05:43:18;;;;;;;2.73;0.80;;;;;;;10.74;100.00;99996.47;5013612;28;20673;-70
2022/09/18 05:45:46;;;;;;;4.17;0.87;;;;;;;10.74;100.00;99999.03;5016086;28;20190;-68
2022/09/18 05:48:12;;;;;;;0.93;0.80;;;;;;;10.80;100.00;99992.69;5026560;28;20244;-68
2022/09/18 05:50:41;;;;;;;3.47;0.80;;;;;;;10.76;100.00;99998.94;5021523;28;20244;-68
2022/09/18 05:53:12;;;;;;;3.00;1.37;;;;;;;10.71;100.00;99995.81;5041208;28;20258;-68
2022/09/18 05:55:38;;;;;;;2.57;0.70;;;;;;;10.80;100.00;100001.25;4999895;28;20278;-68
2022/09/18 05:58:08;;;;;;;1.97;0.80;;;;;;;10.86;100.00;100005.22;5009133;28;20295;-69
2022/09/18 06:00:34;;;;;;;1.57;0.97;;;;;;;10.78;100.00;99997.94;5018625;28;20307;-68
2022/09/18 06:03:05;;;;;;;2.83;0.80;;;;;;;10.77;100.00;100001.41;5029563;28;20190;-68
2022/09/18 06:05:32;;;;;;;2.50;0.93;;;;;;;10.74;100.00;100003.34;5020410;28;20719;-68
2022/09/18 06:08:01;;;;;;;2.47;0.70;;;;;;;10.78;100.00;100005.66;5015686;28;20181;-68
2022/09/18 06:10:28;;;;;;;2.40;0.80;;;;;;;10.98;100.00;100007.06;5016234;28;20230;-68
2022/09/18 06:13:11;;;;;;;1.07;0.80;;;;;;;10.93;100.00;100014.25;5044181;28;20272;-68
2022/09/18 06:15:37;;;;;;;3.70;1.37;;;;;;;11.09;100.00;100006.47;5011555;28;20213;-69
2022/09/18 06:18:05;;;;;;;2.20;1.20;;;;;;;11.04;100.00;100017.94;5011824;28;20214;-71
2022/09/18 06:20:31;;;;;;;1.43;0.77;;;;;;;11.07;100.00;100018.59;5000007;28;20320;-70
2022/09/18 06:23:00;;;;;;;5.83;1.10;;;;;;;11.15;100.00;100023.31;5009431;28;20538;-70
2022/09/18 06:25:27;;;;;;;1.03;0.60;;;;;;;11.29;100.00;100027.66;5009342;28;20173;-69
2022/09/18 06:27:58;;;;;;;1.43;0.80;;;;;;;11.24;100.00;100032.25;5022898;28;20187;-71
2022/09/18 06:30:29;;;;;;;1.63;0.77;;;;;;;11.18;100.00;100036.00;4999213;28;20223;-70
2022/09/18 06:32:58;;;;;;;0.50;0.50;;;;;;;11.44;100.00;100029.31;5008664;28;20274;-71
2022/09/18 06:35:26;;;;;;;0.73;0.50;;;;;;;11.45;100.00;100030.97;5008296;28;20667;-70
2022/09/18 06:37:52;;;;;;;0.33;0.33;;;;;;;11.36;100.00;100030.69;5012830;28;20202;-70
2022/09/18 06:40:19;;;;;;;1.70;0.40;;;;;;;11.42;100.00;100031.16;5006529;28;20183;-70
2022/09/18 06:42:44;;;;;;;2.70;0.40;;;;;;;11.33;100.00;100036.84;5023929;28;20313;-70
2022/09/18 06:45:12;;;;;;;0.47;0.33;;;;;;;11.37;100.00;100037.50;5012604;28;20257;-70
2022/09/18 06:47:38;;;;;;;0.63;0.43;;;;;;;11.46;100.00;100042.09;5007849;28;20187;-70
2022/09/18 06:50:04;;;;;;;1.43;0.60;;;;;;;11.67;100.00;100042.56;5003713;28;20182;-70
2022/09/18 06:52:30;;;;;;;0.73;0.40;;;;;;;11.89;100.00;100036.94;5025270;28;20205;-69
2022/09/18 06:54:55;;;;;;;1.57;0.50;;;;;;;11.90;100.00;100042.94;5007675;28;20174;-70
2022/09/18 06:57:21;;;;;;;1.20;0.53;;;;;;;11.85;100.00;100040.63;5009740;28;20729;-69
2022/09/18 06:59:49;;;;;;;0.37;0.30;;;;;;;11.65;100.00;100046.13;5008906;28;20190;-70
2022/09/18 07:02:14;;;;;;;0.63;0.40;;;;;;;11.67;100.00;100040.00;4978703;28;20710;-70
2022/09/18 07:04:42;;;;;;;1.23;0.40;;;;;;;11.44;100.00;100049.09;5007945;28;20219;-70
2022/09/18 07:07:07;;;;;;;0.40;0.40;;;;;;;11.43;100.00;100040.50;5009529;28;20209;-70
2022/09/18 07:09:33;;;;;;;1.40;0.50;;;;;;;11.57;100.00;100041.44;5009629;28;20650;-71
2022/09/18 07:11:58;;;;;;;1.17;0.70;;;;;;;11.43;100.00;100043.09;5002125;28;20291;-70
2022/09/18 07:14:24;;;;;;;0.97;0.30;;;;;;;11.37;100.00;100048.59;5010488;28;20265;-70
2022/09/18 07:16:49;;;;;;;1.10;0.60;;;;;;;11.58;100.00;100054.22;5011459;28;20646;-70
2022/09/18 07:19:15;;;;;;;1.47;0.53;;;;;;;11.58;100.00;100038.78;5003957;28;20569;-70
2022/09/18 07:21:45;;;;;;;0.87;0.40;;;;;;;11.72;100.00;100045.69;5012473;28;20226;-69
2022/09/18 07:24:10;;;;;;;0.40;0.40;;;;;;;11.87;100.00;100048.25;5008344;28;20179;-70
2022/09/18 07:26:36;;;;;;;0.60;0.40;;;;;;;11.88;100.00;100050.75;5020283;28;20192;-69
2022/09/18 07:29:01;;;;;;;2.00;0.60;;;;;;;11.76;100.00;100041.19;5009401;28;20203;-70
2022/09/18 07:31:27;;;;;;;0.87;0.30;;;;;;;11.47;100.00;100041.16;4982197;28;20250;-70
2022/09/18 07:33:57;;;;;;;0.67;0.60;;;;;;;11.35;100.00;100037.59;5014940;28;20182;-69
2022/09/18 07:36:26;;;;;;;1.97;0.57;;;;;;;11.76;100.00;100036.03;5008650;28;20278;-71
2022/09/18 07:38:52;;;;;;;0.67;0.50;;;;;;;12.06;100.00;100019.66;5011894;28;20277;-70
2022/09/18 07:41:20;;;;;;;5.73;0.80;;;;;;;12.28;100.00;100032.03;5022324;28;20715;-69
2022/09/18 07:43:49;;;;;;;0.43;0.43;;;;;;;12.57;100.00;100035.31;5027183;28;20227;-70
2022/09/18 07:46:14;;;;;;;0.93;0.47;;;;;;;12.87;100.00;100030.88;5022386;28;20179;-69
2022/09/18 07:48:42;;;;;;;2.37;0.57;;;;;;;12.88;100.00;100033.34;5024181;28;20186;-69
2022/09/18 07:51:08;;;;;;;0.60;0.50;;;;;;;13.18;100.00;100032.25;5007411;28;20233;-70
2022/09/18 07:53:33;;;;;;;0.50;0.50;;;;;;;13.16;100.00;100041.88;5023997;28;20583;-70
2022/09/18 07:55:59;;;;;;;1.93;0.57;;;;;;;13.09;100.00;100032.88;5012292;28;20280;-69
2022/09/18 07:58:25;;;;;;;0.63;0.47;;;;;;;13.13;100.00;100042.06;5019664;28;20242;-69
2022/09/18 08:00:51;;;;;;;0.57;0.40;;;;;;;13.42;100.00;100039.34;5012088;28;20237;-70
2022/09/18 08:03:18;;;;;;;0.40;0.40;;;;;;;13.41;100.00;100032.50;5014609;28;20185;-70
2022/09/18 08:05:44;;;;;;;0.57;0.47;;;;;;;13.91;100.00;100034.31;5017230;28;20198;-70
2022/09/18 08:08:16;;;;;;;0.57;0.50;;;;;;;13.99;100.00;100039.75;5014086;28;20202;-71
2022/09/18 08:10:43;;;;;;;1.00;0.43;;;;;;;13.97;100.00;100037.28;5025163;28;20237;-70
2022/09/18 08:13:10;;;;;;;0.93;0.50;;;;;;;14.07;100.00;100031.50;5020559;28;20558;-69
2022/09/18 08:15:37;;;;;;;1.13;0.40;;;;;;;14.04;100.00;100035.09;5008332;28;20523;-70
2022/09/18 08:18:07;;;;;;;1.90;0.60;;;;;;;13.92;100.00;100033.34;5016625;28;20213;-70
2022/09/18 08:20:33;;;;;;;0.87;0.50;;;;;;;13.81;100.00;100027.19;5021097;28;20351;-69
2022/09/18 08:23:00;;;;;;;1.40;0.60;;;;;;;13.60;100.00;100026.91;5027649;28;20207;-69
2022/09/18 08:25:31;;;;;;;0.47;0.47;;;;;;;13.69;100.00;100031.47;5024335;28;20592;-70
2022/09/18 08:28:04;;;;;;;0.60;0.60;;;;;;;13.60;100.00;100039.81;5026940;28;20175;-70
2022/09/18 08:30:30;;;;;;;1.17;0.60;;;;;;;13.69;100.00;100041.78;5020205;28;20229;-70
2022/09/18 08:33:00;;;;;;;1.53;0.70;;;;;;;13.79;100.00;100043.75;5033646;28;20275;-70
2022/09/18 08:35:27;;;;;;;1.83;0.80;;;;;;;13.87;100.00;100044.84;5022766;28;20236;-69
2022/09/18 08:37:53;;;;;;;1.03;0.80;;;;;;;13.98;98.43;100045.88;5018642;28;20217;-70
2022/09/18 08:40:29;;;;;;;2.47;0.90;;;;;;;14.14;97.61;100048.19;5013532;28;20186;-71
2022/09/18 08:43:00;;;;;;;3.03;1.10;;;;;;;13.94;96.27;100042.69;5041921;28;20221;-70
2022/09/18 08:45:43;;;;;;;2.83;1.30;;;;;;;13.89;96.11;100039.56;5021289;28;20190;-70
2022/09/18 08:48:25;;;;;;;2.87;1.00;;;;;;;13.96;95.45;100043.38;5015289;28;20248;-69
2022/09/18 08:51:00;;;;;;;2.13;1.17;;;;;;;13.78;96.27;100040.34;5006953;28;20226;-70
2022/09/18 08:53:33;;;;;;;3.77;1.20;;;;;;;14.11;94.38;100036.31;5011254;28;20625;-70
2022/09/18 08:56:00;;;;;;;1.67;1.37;;;;;;;14.01;92.82;100033.53;5017288;28;20201;-69
2022/09/18 08:58:34;;;;;;;3.10;1.47;;;;;;;14.09;89.96;100025.28;5026443;28;20213;-70
2022/09/18 09:01:13;;;;;;;3.37;1.03;;;;;;;14.47;90.42;100026.88;5006222;28;20238;-70
2022/09/18 09:03:56;;;;;;;1.87;0.83;;;;;;;14.67;84.90;100024.63;5029369;28;20231;-74
2022/09/18 09:06:34;;;;;;;3.17;1.13;;;;;;;14.70;85.64;100024.41;5015794;28;20228;-70
2022/09/18 09:09:21;;;;;;;3.27;1.17;;;;;;;14.61;86.67;100010.34;5017281;28;20228;-70
2022/09/18 09:12:00;;;;;;;2.60;0.90;;;;;;;14.49;86.34;100019.81;5014426;28;20248;-70
2022/09/18 09:14:44;;;;;;;3.73;1.17;;;;;;;14.66;86.04;100036.75;5010456;28;20210;-70
2022/09/18 09:17:20;;;;;;;5.30;1.40;;;;;;;14.52;84.61;100044.66;5017877;28;20568;-70
2022/09/18 09:19:51;;;;;;;3.37;1.33;;;;;;;14.58;84.04;100039.03;5018582;28;20178;-71
2022/09/18 09:22:44;;;;;;;3.10;1.20;;;;;;;14.41;84.53;100036.84;5016439;28;20317;-70
2022/09/18 09:25:24;;;;;;;1.63;0.80;;;;;;;14.62;84.14;100045.63;5008739;28;20605;-70
2022/09/18 09:28:02;;;;;;;1.70;0.90;;;;;;;14.51;82.55;100045.59;5012996;28;20178;-70
2022/09/18 09:30:33;;;;;;;8.80;1.33;;;;;;;14.60;83.74;100031.16;5009702;28;20236;-70
2022/09/18 09:33:19;;;;;;;2.03;0.97;;;;;;;14.35;80.94;100040.69;5031378;28;20277;-73
2022/09/18 09:35:53;;;;;;;2.63;1.10;;;;;;;14.69;81.73;100026.16;5017453;28;20273;-70
2022/09/18 09:38:40;;;;;;;2.13;1.00;;;;;;;14.72;81.43;100032.06;5018242;28;20213;-71
2022/09/18 09:41:21;;;;;;;2.67;1.13;;;;;;;14.92;79.04;100025.41;5004725;28;20222;-70
2022/09/18 09:43:59;;;;;;;5.67;1.00;;;;;;;15.21;78.43;100018.06;5010603;28;20238;-70
2022/09/18 09:46:57;;;;;;;2.10;1.13;;;;;;;15.50;78.29;100012.44;5011186;28;20253;-70
2022/09/18 09:49:26;;;;;;;2.93;1.13;;;;;;;16.02;74.42;100025.75;5022905;28;20543;-70
2022/09/18 09:52:29;;;;;;;2.77;0.93;;;;;;;15.89;70.85;100035.41;5004052;28;20233;-69
2022/09/18 09:55:17;;;;;;;1.67;0.87;;;;;;;15.72;73.40;100037.53;5009503;28;20662;-70
2022/09/18 09:58:04;;;;;;;1.67;1.07;;;;;;;15.49;75.03;100040.13;5011499;28;20573;-71
2022/09/18 10:00:42;;;;;;;2.43;1.00;;;;;;;15.70;76.79;100034.22;5004973;28;20230;-70
2022/09/18 10:03:25;;;;;;;2.97;1.20;;;;;;;15.13;77.75;100033.34;5017016;28;20205;-70
2022/09/18 10:05:59;;;;;;;4.67;1.10;;;;;;;15.40;76.20;100030.44;5016848;28;20182;-70
2022/09/18 10:08:54;;;;;;;3.63;1.27;;;;;;;15.42;77.30;100036.34;5016617;28;20195;-70
2022/09/18 10:11:21;;;;;;;2.17;1.00;;;;;;;15.79;75.35;100030.94;5000949;28;20221;-70
2022/09/18 10:14:17;;;;;;;4.13;1.30;;;;;;;15.91;73.13;100026.56;5014606;28;20186;-70
2022/09/18 10:16:50;;;;;;;3.93;1.10;;;;;;;15.29;75.40;100015.72;5024099;28;20195;-70
2022/09/18 10:19:20;;;;;;;2.30;0.90;;;;;;;15.41;74.04;100018.31;5012196;28;20277;-71
2022/09/18 10:21:53;;;;;;;1.20;0.90;;;;;;;15.53;75.01;100012.22;5011509;28;20224;-69
2022/09/18 10:24:35;;;;;;;2.50;0.80;;;;;;;15.38;73.86;100019.38;5030001;28;20178;-69
2022/09/18 10:27:12;;;;;;;2.40;0.80;;;;;;;15.05;72.64;100017.56;5029807;28;20178;-69
2022/09/18 10:29:39;;;;;;;5.90;1.57;;;;;;;15.19;74.26;100021.72;5027572;28;20201;-70
2022/09/18 10:32:05;;;;;;;2.80;1.17;;;;;;;15.12;74.69;100022.19;5017006;28;20233;-70
2022/09/18 10:34:46;;;;;;;3.20;1.00;;;;;;;15.09;74.24;100019.00;5027990;28;20281;-71
2022/09/18 10:37:27;;;;;;;1.67;1.00;;;;;;;14.75;73.45;100018.88;5027014;28;20206;-69
2022/09/18 10:39:58;;;;;;;3.70;1.13;;;;;;;14.53;75.50;100025.59;5003555;28;20240;-69
2022/09/18 10:42:27;;;;;;;4.20;1.40;;;;;;;14.52;74.55;100013.59;5010260;28;20230;-70
2022/09/18 10:44:58;;;;;;;3.20;0.80;;;;;;;14.60;76.02;100023.38;5008983;28;20280;-69
2022/09/18 10:47:26;;;;;;;3.53;0.90;;;;;;;14.53;76.97;100012.66;5029822;28;20186;-70
2022/09/18 10:50:05;;;;;;;4.53;1.40;;;;;;;14.97;76.63;100015.53;5023990;28;20332;-70
2022/09/18 10:52:45;;;;;;;2.27;1.20;;;;;;;14.91;73.57;100021.16;4993856;28;20324;-72
2022/09/18 10:55:27;;;;;;;2.50;1.10;;;;;;;14.80;76.99;100032.34;5001824;28;20179;-70
2022/09/18 10:57:56;;;;;;;4.33;1.27;;;;;;;14.61;78.23;100018.13;5013045;28;20645;-70
2022/09/18 11:00:24;;;;;;;4.50;1.10;;;;;;;14.90;78.85;100022.94;4980021;28;20254;-69
2022/09/18 11:02:54;;;;;;;3.00;1.77;;;;;;;14.62;78.60;100006.81;4994320;28;20180;-70
2022/09/18 11:05:28;;;;;;;2.03;1.00;;;;;;;14.80;75.91;100007.25;5020652;28;20248;-70
2022/09/18 11:07:56;;;;;;;5.50;1.13;;;;;;;14.68;77.67;100000.41;5007601;28;20217;-71
2022/09/18 11:10:24;;;;;;;2.87;0.80;;;;;;;14.66;79.60;100002.25;5002393;28;21212;-70
2022/09/18 11:12:52;;;;;;;4.63;0.83;;;;;;;14.57;79.49;99998.56;5023540;28;20205;-71
2022/09/18 11:15:20;;;;;;;4.27;1.30;;;;;;;14.78;79.97;100000.53;5019825;28;20197;-69
2022/09/18 11:17:52;;;;;;;2.07;1.00;;;;;;;14.91;75.97;100001.28;5027296;28;20613;-70
2022/09/18 11:20:25;;;;;;;2.07;1.20;;;;;;;14.96;78.51;100003.56;5017679;28;20194;-70
2022/09/18 11:23:15;;;;;;;3.33;1.27;;;;;;;14.96;75.10;100008.72;5030303;28;20176;-70
2022/09/18 11:25:44;;;;;;;2.10;1.00;;;;;;;14.81;75.17;100019.28;5027496;28;20189;-70
2022/09/18 11:28:31;;;;;;;2.70;1.10;;;;;;;14.19;78.48;100004.75;5027848;28;20214;-70
2022/09/18 11:31:12;;;;;;;2.17;1.30;;;;;;;14.08;80.22;100005.50;4982803;28;20705;-70
2022/09/18 11:33:55;;;;;;;4.30;1.33;;;;;;;14.18;82.51;100006.50;5014744;28;20185;-69
2022/09/18 11:36:30;;;;;;;5.93;1.17;;;;;;;14.35;82.38;100001.88;5017308;28;20533;-69
2022/09/18 11:39:00;;;;;;;3.97;1.00;;;;;;;14.41;82.70;100008.38;5015253;28;20256;-70
2022/09/18 11:41:35;;;;;;;2.27;1.43;;;;;;;14.52;83.42;100004.09;5015655;28;20229;-71